Airport View

Enter AWOS ICAO identifier for current METAR.

ex. KFNL

KBGF 250135Z AUTO 14004KT 10SM CLR 23/19 A3000 RMK A01

25 May 2020 01:47

Frequency: 121.675

Phone: 931-967-8445

Other Area AWOS: KTHA - KFYM - KSYI - K4A6

TAF KCHA 242320Z 2500/2524 00000KT P6SM FEW050 SCT200 FM251700 14007KT P6SM VCTS SCT050CB BKN200